Time;durP1;ratioP1;P1;durP2;ratioP2;P2;SDS_P1;SDS_P2;PMS_P1;PMS_P2;Temp;Humidity;BMP_temperature;BMP_pressure;BME280_temperature;BME280_humidity;BME280_pressure;Samples;Min_cycle;Max_cycle;Signal;HPM_P1;HPM_P2
2021/01/05 00:01:27;;;;;;;10.23;6.28;;;;;;;1.54;88.71;101861.13;5071558;28;20427;-80
2021/01/05 00:03:53;;;;;;;9.03;5.77;;;;;;;1.51;89.44;101851.66;5068701;28;20115;-80
2021/01/05 00:06:18;;;;;;;8.77;5.43;;;;;;;1.51;89.18;101854.19;5067753;28;20059;-78
2021/01/05 00:08:43;;;;;;;10.63;5.47;;;;;;;1.51;89.34;101858.34;5069429;28;20363;-79
2021/01/05 00:11:08;;;;;;;10.82;6.50;;;;;;;1.49;88.93;101852.31;5069865;28;20037;-79
2021/01/05 00:13:34;;;;;;;11.73;6.80;;;;;;;1.49;89.47;101854.84;5070287;28;20047;-79
2021/01/05 00:15:59;;;;;;;8.07;5.77;;;;;;;1.50;89.30;101859.13;5065959;28;20031;-80
2021/01/05 00:18:24;;;;;;;9.68;6.07;;;;;;;1.52;88.61;101857.59;5068024;28;20274;-80
2021/01/05 00:20:50;;;;;;;11.65;6.82;;;;;;;1.54;88.77;101856.94;5067006;28;20033;-79
2021/01/05 00:23:15;;;;;;;13.40;7.00;;;;;;;1.53;89.23;101854.28;5065436;28;20474;-80
2021/01/05 00:25:41;;;;;;;7.87;6.07;;;;;;;1.55;88.44;101853.63;5066590;28;20307;-80
2021/01/05 00:28:07;;;;;;;10.63;6.53;;;;;;;1.53;88.95;101854.28;5065876;28;20032;-80
2021/01/05 00:30:32;;;;;;;10.80;6.45;;;;;;;1.54;89.11;101851.00;5068696;28;20027;-80
2021/01/05 00:32:57;;;;;;;10.37;6.83;;;;;;;1.52;88.81;101844.94;5066290;28;20032;-81
2021/01/05 00:35:26;;;;;;;9.95;6.70;;;;;;;1.52;89.00;101850.88;5072548;28;20266;-79
2021/01/05 00:37:52;;;;;;;9.20;6.57;;;;;;;1.50;89.26;101854.06;5062924;28;20108;-80
2021/01/05 00:40:19;;;;;;;;;;;;;;;1.51;88.89;101856.72;5067496;28;20021;-80
2021/01/05 00:42:44;;;;;;;8.70;5.22;;;;;;;1.53;89.25;101856.81;5068465;28;19920;-79
2021/01/05 00:45:10;;;;;;;8.77;5.93;;;;;;;1.52;89.24;101852.53;5064150;28;20036;-80
2021/01/05 00:47:36;;;;;;;10.70;6.47;;;;;;;1.49;89.26;101857.38;5070057;28;20748;-80
2021/01/05 00:50:02;;;;;;;14.33;7.07;;;;;;;1.51;89.11;101856.72;5067397;28;20048;-79
2021/01/05 00:52:27;;;;;;;;;;;;;;;1.50;89.07;101854.06;5068174;28;20035;-81
2021/01/05 00:54:52;;;;;;;10.90;6.87;;;;;;;1.49;88.94;101862.44;5071310;28;19971;-79
2021/01/05 00:57:17;;;;;;;12.63;7.00;;;;;;;1.51;89.66;101858.34;5065440;28;20032;-79
2021/01/05 00:59:43;;;;;;;10.68;6.78;;;;;;;1.50;89.16;101865.06;5068596;28;20021;-78
2021/01/05 01:02:08;;;;;;;9.80;6.75;;;;;;;1.51;89.05;101860.88;5067257;28;20023;-79
2021/01/05 01:04:35;;;;;;;13.07;7.40;;;;;;;1.52;88.71;101861.00;5067640;28;20078;-79
2021/01/05 01:07:00;;;;;;;9.90;6.67;;;;;;;1.54;89.07;101861.13;5068039;28;20472;-81
2021/01/05 01:09:25;;;;;;;10.00;6.80;;;;;;;1.53;89.04;101864.41;5066055;28;20108;-79
2021/01/05 01:12:14;;;;;;;10.03;7.07;;;;;;;1.53;89.36;101872.00;5071353;28;20483;-80
2021/01/05 01:14:41;;;;;;;11.80;7.27;;;;;;;1.51;89.15;101861.78;5065785;28;20051;-80
2021/01/05 01:17:07;;;;;;;10.33;7.00;;;;;;;1.50;89.52;101854.94;5069154;28;20029;-79
2021/01/05 01:19:33;;;;;;;8.95;6.47;;;;;;;1.52;89.13;101852.53;5067154;28;20046;-79
2021/01/05 01:21:58;;;;;;;;;;;;;;;1.50;89.35;101859.13;5066955;28;20036;-79
2021/01/05 01:24:25;;;;;;;10.57;7.13;;;;;;;1.50;89.88;101856.59;5064613;28;19913;-79
2021/01/05 01:26:51;;;;;;;14.37;8.80;;;;;;;1.49;89.34;101862.44;5066079;28;20035;-79
2021/01/05 01:29:22;;;;;;;12.27;7.20;;;;;;;1.50;89.12;101859.13;5068869;28;20474;-79
2021/01/05 01:31:47;;;;;;;11.00;7.47;;;;;;;1.51;89.24;101865.97;5078159;28;20437;-81
2021/01/05 01:34:18;;;;;;;14.32;7.60;;;;;;;1.50;89.43;101864.19;5077347;28;20020;-78
2021/01/05 01:37:15;;;;;;;10.00;7.13;;;;;;;1.53;89.33;101866.94;5071457;28;20036;-81
2021/01/05 01:39:43;;;;;;;14.10;6.57;;;;;;;1.51;89.11;101865.97;5054959;28;20036;-79
2021/01/05 01:42:10;;;;;;;9.83;7.03;;;;;;;1.48;89.43;101861.53;5075319;28;20073;-80
2021/01/05 01:44:38;;;;;;;10.90;7.27;;;;;;;1.49;89.11;101865.84;5071645;28;20035;-80
2021/01/05 01:47:09;;;;;;;11.83;6.60;;;;;;;1.49;89.42;101868.38;5072202;28;20119;-79
2021/01/05 01:49:35;;;;;;;11.03;7.67;;;;;;;1.50;89.45;101865.06;5064047;28;20025;-81
2021/01/05 01:52:01;;;;;;;10.85;6.80;;;;;;;1.49;89.60;101864.97;5071867;28;21748;-80
2021/01/05 01:54:38;;;;;;;9.70;7.03;;;;;;;1.46;89.56;101864.72;5069896;28;20017;-79
2021/01/05 01:57:32;;;;;;;14.03;7.07;;;;;;;1.46;89.74;101862.19;5072709;28;20067;-79
2021/01/05 02:00:24;;;;;;;11.23;7.10;;;;;;;1.48;89.61;101866.59;5068598;28;20398;-79
2021/01/05 02:03:25;;;;;;;10.07;6.93;;;;;;;1.43;89.53;101867.03;5068388;28;20024;-78
2021/01/05 02:06:04;;;;;;;14.03;7.70;;;;;;;1.44;89.26;101856.13;5069965;28;20037;-79
2021/01/05 02:08:53;;;;;;;10.77;7.60;;;;;;;1.43;89.90;101856.91;5068816;28;20028;-80
2021/01/05 02:11:36;;;;;;;10.70;7.53;;;;;;;1.41;89.90;101858.44;5067067;28;20624;-80
2021/01/05 02:14:04;;;;;;;10.33;7.10;;;;;;;1.42;89.46;101858.56;5063968;28;20135;-79
2021/01/05 02:16:49;;;;;;;9.50;6.53;;;;;;;1.42;89.54;101860.19;5065326;28;20510;-79
2021/01/05 02:19:26;;;;;;;9.40;6.37;;;;;;;1.42;89.49;101863.63;5067222;28;20134;-79
2021/01/05 02:22:40;;;;;;;12.50;7.38;;;;;;;1.45;89.60;101857.91;5060319;28;20043;-80
2021/01/05 02:25:15;;;;;;;13.87;7.90;;;;;;;1.41;89.60;101866.91;5012689;28;20036;-79
2021/01/05 02:27:48;;;;;;;11.57;7.73;;;;;;;1.39;89.81;101857.44;5066442;28;20490;-79
2021/01/05 02:30:18;;;;;;;12.07;7.90;;;;;;;1.40;89.66;101854.13;5064168;28;20025;-80
2021/01/05 02:33:10;;;;;;;11.83;7.60;;;;;;;1.45;89.71;101856.25;5063055;28;20016;-81
2021/01/05 02:35:52;;;;;;;10.17;6.90;;;;;;;1.46;89.69;101859.66;5055717;28;20116;-79
2021/01/05 02:38:27;;;;;;;10.37;6.73;;;;;;;1.43;89.51;101851.84;5062040;28;20102;-79
2021/01/05 02:41:11;;;;;;;11.93;6.90;;;;;;;1.40;89.40;101857.56;5065253;28;20400;-79
2021/01/05 02:44:00;;;;;;;12.43;7.93;;;;;;;1.38;89.68;101848.97;5063323;28;20028;-78
2021/01/05 02:46:40;;;;;;;12.00;7.10;;;;;;;1.38;89.85;101855.66;5061809;28;20021;-80
2021/01/05 02:49:17;;;;;;;12.27;7.60;;;;;;;1.40;89.94;101854.13;5061685;28;20035;-79
2021/01/05 02:52:17;;;;;;;11.23;7.73;;;;;;;1.34;90.17;101852.03;5062028;28;20053;-78
2021/01/05 02:55:24;;;;;;;11.80;7.90;;;;;;;1.34;90.35;101854.56;5067867;28;20029;-80
2021/01/05 02:57:49;;;;;;;12.00;7.57;;;;;;;1.37;90.12;101852.25;5059266;28;20040;-79
2021/01/05 03:00:39;;;;;;;11.40;7.57;;;;;;;1.36;89.91;101857.22;5062504;28;20527;-79
2021/01/05 03:03:35;;;;;;;11.80;7.77;;;;;;;1.34;89.56;101862.16;5062718;28;20028;-80
2021/01/05 03:06:16;;;;;;;12.03;7.53;;;;;;;1.37;89.91;101852.25;5065386;28;20044;-79
2021/01/05 03:09:27;;;;;;;12.07;8.00;;;;;;;1.35;89.70;101847.84;5063532;28;20481;-79
2021/01/05 03:12:19;;;;;;;11.77;7.27;;;;;;;1.36;89.83;101847.09;5072185;28;20482;-81
2021/01/05 03:14:44;;;;;;;13.33;7.80;;;;;;;1.38;90.05;101843.91;5071477;28;20036;-81
2021/01/05 03:17:25;;;;;;;12.60;8.90;;;;;;;1.35;89.81;101845.31;5072881;28;20273;-80
2021/01/05 03:20:07;;;;;;;14.73;8.47;;;;;;;1.34;90.18;101851.16;5070129;28;20413;-80
2021/01/05 03:25:09;;;;;;;12.23;7.53;;;;;;;1.36;90.12;101852.16;5085787;28;20040;-79
2021/01/05 03:27:36;;;;;;;11.23;7.60;;;;;;;1.33;89.81;101856.97;5100543;28;20087;-78
2021/01/05 03:30:10;;;;;;;14.03;8.50;;;;;;;1.37;90.03;101856.44;5093155;28;20031;-79
2021/01/05 03:32:35;;;;;;;12.10;7.73;;;;;;;1.36;89.98;101854.69;5088525;28;20111;-77
2021/01/05 03:35:01;;;;;;;12.52;7.95;;;;;;;1.34;90.25;101846.09;5101903;28;20051;-79
2021/01/05 03:37:26;;;;;;;12.13;8.07;;;;;;;1.33;89.79;101845.19;5100032;28;20016;-80
2021/01/05 03:39:51;;;;;;;13.55;8.70;;;;;;;1.35;89.99;101843.66;5082493;28;20032;-80
2021/01/05 03:42:16;;;;;;;12.13;7.77;;;;;;;1.32;89.96;101847.63;5079255;28;20048;-79
2021/01/05 03:44:42;;;;;;;14.07;7.50;;;;;;;1.33;89.79;101845.19;5088968;28;20270;-79
2021/01/05 03:47:07;;;;;;;12.40;8.13;;;;;;;1.36;89.57;101837.84;5087145;28;20023;-78
2021/01/05 03:49:32;;;;;;;13.30;7.97;;;;;;;1.39;89.41;101853.25;5101253;28;20283;-78
2021/01/05 03:51:57;;;;;;;15.15;8.60;;;;;;;1.34;90.02;101846.97;5082611;28;20020;-79
2021/01/05 03:54:23;;;;;;;14.97;8.60;;;;;;;1.33;90.01;101839.25;5081780;28;20048;-80
2021/01/05 03:56:49;;;;;;;12.82;8.10;;;;;;;1.35;90.14;101836.06;5092273;28;20473;-81
2021/01/05 03:59:14;;;;;;;;;;;;;;;1.35;89.75;101832.66;5102188;28;20371;-79
2021/01/05 04:01:52;;;;;;;14.63;8.97;;;;;;;1.36;90.16;101842.03;5095966;28;19958;-80
2021/01/05 04:04:17;;;;;;;13.40;8.53;;;;;;;1.36;90.35;101835.31;5079489;28;20024;-80
2021/01/05 04:06:42;;;;;;;13.77;9.80;;;;;;;1.34;89.61;101829.25;5088056;28;20430;-79
2021/01/05 04:09:07;;;;;;;11.60;7.97;;;;;;;1.35;89.89;101837.72;5081190;28;20031;-77
2021/01/05 04:11:33;;;;;;;14.53;8.87;;;;;;;1.36;89.56;101832.78;5100844;28;20270;-78
2021/01/05 04:13:58;;;;;;;14.60;8.63;;;;;;;1.37;89.57;101831.13;5078185;28;20031;-79
2021/01/05 04:16:23;;;;;;;15.17;8.77;;;;;;;1.33;90.02;101835.06;5089795;28;20786;-80
2021/01/05 04:18:48;;;;;;;14.35;7.63;;;;;;;1.34;89.52;101831.78;5100603;28;20049;-80
2021/01/05 04:21:14;;;;;;;12.77;7.87;;;;;;;1.33;89.44;101829.13;5082747;28;20017;-79
2021/01/05 04:23:39;;;;;;;15.63;7.97;;;;;;;1.34;89.60;101830.91;5082301;28;20755;-79
2021/01/05 04:26:08;;;;;;;13.57;8.73;;;;;;;1.32;89.95;101827.38;5082495;28;20020;-78
2021/01/05 04:28:33;;;;;;;15.30;8.90;;;;;;;1.32;90.12;101824.84;5081954;28;20262;-79
2021/01/05 04:30:58;;;;;;;12.50;8.02;;;;;;;1.36;89.70;101824.31;5081821;28;20059;-79
2021/01/05 04:33:23;;;;;;;14.63;8.50;;;;;;;1.35;89.75;101827.59;5086304;28;20032;-80
2021/01/05 04:35:49;;;;;;;13.52;8.38;;;;;;;1.36;89.77;101825.19;5093751;28;20043;-77
2021/01/05 04:38:14;;;;;;;12.53;8.00;;;;;;;1.37;89.44;101826.06;5104614;28;20637;-80
2021/01/05 04:40:45;;;;;;;12.80;8.32;;;;;;;1.36;89.89;101822.66;5098496;28;20031;-79
2021/01/05 04:43:36;;;;;;;13.77;8.47;;;;;;;1.38;89.46;101820.22;5089223;28;20125;-79
2021/01/05 04:46:21;;;;;;;13.33;8.67;;;;;;;1.35;89.72;101818.34;5089716;28;20073;-80
2021/01/05 04:48:54;;;;;;;13.50;8.10;;;;;;;1.37;89.75;101823.53;5103812;28;20034;-78
2021/01/05 04:51:55;;;;;;;11.13;7.40;;;;;;;1.38;89.69;101818.59;5103061;28;20111;-78
2021/01/05 04:54:35;;;;;;;13.63;8.67;;;;;;;1.40;89.38;101821.22;5088609;28;20024;-77
2021/01/05 04:57:33;;;;;;;13.07;7.93;;;;;;;1.45;89.49;101819.91;5101915;28;20044;-78
2021/01/05 05:00:10;;;;;;;;;;;;;;;1.44;89.41;101815.63;5083930;28;20044;-78
2021/01/05 05:02:55;;;;;;;;;;;;;;;1.43;89.64;101816.41;5091703;28;19939;-80
2021/01/05 05:05:23;;;;;;;12.60;7.73;;;;;;;1.42;89.62;101814.63;5083680;28;19965;-78
2021/01/05 05:08:13;;;;;;;14.70;8.43;;;;;;;1.42;90.00;101822.22;5084787;28;20024;-79
2021/01/05 05:10:46;;;;;;;13.07;8.20;;;;;;;1.43;89.71;101821.47;5102213;28;20027;-78
2021/01/05 05:13:48;;;;;;;13.97;8.20;;;;;;;1.46;89.92;101819.16;5100477;28;20024;-79
2021/01/05 05:16:48;;;;;;;12.47;7.93;;;;;;;1.44;89.51;101826.63;5076884;28;20070;-78
2021/01/05 05:19:39;;;;;;;15.73;8.60;;;;;;;1.50;89.86;101826.22;5100196;28;20050;-78
2021/01/05 05:22:19;;;;;;;13.93;8.60;;;;;;;1.50;89.55;101828.75;5097619;28;20509;-78
2021/01/05 05:24:57;;;;;;;14.03;8.50;;;;;;;1.48;89.55;101827.75;5092404;28;20029;-80
2021/01/05 05:27:39;;;;;;;13.60;8.13;;;;;;;1.48;89.64;101832.81;5092099;28;20031;-80
2021/01/05 05:30:13;;;;;;;13.43;8.90;;;;;;;1.50;88.99;101839.75;5080300;28;20035;-78
2021/01/05 05:32:49;;;;;;;15.50;8.63;;;;;;;1.50;89.51;101843.94;5087812;28;20064;-78
2021/01/05 05:35:49;;;;;;;18.05;9.70;;;;;;;1.49;89.84;101847.22;5085041;28;20035;-78
2021/01/05 05:38:33;;;;;;;14.30;8.43;;;;;;;1.50;89.74;101849.00;5050276;28;20047;-78
2021/01/05 05:41:14;;;;;;;17.20;8.97;;;;;;;1.51;89.38;101849.13;5080488;28;20040;-78
2021/01/05 05:44:08;;;;;;;16.00;9.10;;;;;;;1.51;89.72;101846.59;5086476;28;20017;-78
2021/01/05 05:46:41;;;;;;;14.80;8.07;;;;;;;1.56;89.32;101852.88;5081952;28;20016;-77
2021/01/05 05:49:15;;;;;;;17.03;8.60;;;;;;;1.51;89.73;101846.59;5101767;28;20038;-78
2021/01/05 05:51:47;;;;;;;17.80;9.37;;;;;;;1.53;89.22;101854.28;5098238;28;20032;-77
2021/01/05 05:54:18;;;;;;;13.80;7.93;;;;;;;1.53;89.60;101849.22;5102129;28;20089;-79
2021/01/05 05:57:11;;;;;;;20.03;9.87;;;;;;;1.61;89.12;101850.69;5084431;28;20129;-79
2021/01/05 05:59:41;;;;;;;16.93;9.67;;;;;;;1.56;89.37;101857.06;5100994;28;20075;-78
2021/01/05 06:02:09;;;;;;;19.37;9.83;;;;;;;1.52;89.60;101855.06;5097396;28;20030;-77
2021/01/05 06:04:36;;;;;;;17.70;9.17;;;;;;;1.57;89.64;101858.81;5101368;28;20083;-77
2021/01/05 06:07:02;;;;;;;17.43;8.50;;;;;;;1.53;89.81;101864.41;5089828;28;20429;-78
2021/01/05 06:09:27;;;;;;;14.63;8.68;;;;;;;1.53;89.88;101861.88;5100164;28;20035;-78
2021/01/05 06:11:53;;;;;;;16.43;9.33;;;;;;;1.58;89.73;101863.13;5093487;28;20490;-77
2021/01/05 06:14:19;;;;;;;16.23;9.70;;;;;;;1.61;90.03;101868.41;5100327;28;20035;-79
2021/01/05 06:16:44;;;;;;;17.92;9.23;;;;;;;1.54;89.54;101877.19;5099683;28;20574;-79
2021/01/05 06:19:09;;;;;;;18.60;9.40;;;;;;;1.60;89.95;101873.34;5100851;28;20026;-78
2021/01/05 06:21:34;;;;;;;15.65;9.13;;;;;;;1.59;89.75;101880.06;5079251;28;20516;-78
2021/01/05 06:24:00;;;;;;;19.60;10.02;;;;;;;1.64;90.05;101877.91;5078791;28;20028;-79
2021/01/05 06:26:25;;;;;;;18.48;10.00;;;;;;;1.63;89.65;101879.56;5080244;28;20067;-78
2021/01/05 06:28:50;;;;;;;18.80;9.70;;;;;;;1.59;89.82;101877.53;5097484;28;20092;-78
2021/01/05 06:31:16;;;;;;;18.53;9.70;;;;;;;1.56;90.13;101885.78;5079445;28;20283;-78
2021/01/05 06:33:41;;;;;;;20.57;9.63;;;;;;;1.59;90.19;101886.78;5080671;28;20336;-78
2021/01/05 06:36:07;;;;;;;16.70;9.65;;;;;;;1.59;90.36;101876.66;5082244;28;20977;-79
2021/01/05 06:38:32;;;;;;;18.33;9.73;;;;;;;1.56;90.60;101892.50;5088555;28;20020;-79
2021/01/05 06:40:58;;;;;;;20.75;10.02;;;;;;;1.54;90.33;101878.84;5079388;28;20079;-78
2021/01/05 06:43:23;;;;;;;17.90;9.70;;;;;;;1.62;90.39;101887.03;5098753;28;20425;-78
2021/01/05 06:45:48;;;;;;;18.87;10.07;;;;;;;1.60;90.34;101893.63;5089945;28;20274;-76
2021/01/05 06:48:14;;;;;;;19.60;10.70;;;;;;;1.56;90.86;101897.56;5099158;28;20782;-78
2021/01/05 06:50:39;;;;;;;20.77;10.53;;;;;;;1.57;90.80;101891.75;5092541;28;20048;-79
2021/01/05 06:53:04;;;;;;;15.82;9.65;;;;;;;1.54;90.59;101894.03;5088370;28;20038;-78
2021/01/05 06:55:30;;;;;;;18.67;9.87;;;;;;;1.52;90.88;101890.50;5097401;28;20024;-79
2021/01/05 06:57:55;;;;;;;17.80;9.80;;;;;;;1.55;90.76;101888.22;5097003;28;20289;-80
2021/01/05 07:00:24;;;;;;;17.05;10.10;;;;;;;1.57;91.09;101891.75;5092508;28;20486;-78
2021/01/05 07:02:50;;;;;;;18.93;10.50;;;;;;;1.53;91.54;101889.75;5097070;28;20027;-79
2021/01/05 07:05:16;;;;;;;;;;;;;;;1.52;91.83;101893.03;5099388;28;20435;-79
2021/01/05 07:07:41;;;;;;;20.03;10.77;;;;;;;1.47;91.81;101889.28;5091703;28;19912;-78
2021/01/05 07:10:09;;;;;;;19.25;10.35;;;;;;;1.49;91.72;101883.56;5092660;28;20035;-77
2021/01/05 07:12:34;;;;;;;22.70;10.67;;;;;;;1.48;91.80;101888.50;5098012;28;20036;-78
2021/01/05 07:15:00;;;;;;;21.40;11.95;;;;;;;1.55;92.18;101895.81;5094507;28;20138;-78
2021/01/05 07:17:25;;;;;;;22.17;11.20;;;;;;;1.57;91.83;101899.34;5096760;28;20031;-77
2021/01/05 07:19:51;;;;;;;25.88;11.57;;;;;;;1.51;91.78;101892.16;5096236;28;20639;-79
2021/01/05 07:22:16;;;;;;;20.27;10.65;;;;;;;1.51;91.86;101896.34;5077421;28;20107;-79
2021/01/05 07:24:41;;;;;;;20.87;11.60;;;;;;;1.52;91.86;101893.94;5091611;28;20020;-78
2021/01/05 07:27:07;;;;;;;20.73;11.07;;;;;;;1.53;91.81;101897.34;5096985;28;20278;-79
2021/01/05 07:29:32;;;;;;;23.25;11.63;;;;;;;1.53;91.43;101904.94;5095420;28;20266;-77
2021/01/05 07:31:57;;;;;;;22.10;11.35;;;;;;;1.54;91.66;101902.53;5084211;28;20429;-77
2021/01/05 07:34:23;;;;;;;21.95;13.02;;;;;;;1.53;92.14;101907.47;5094989;28;20024;-79
2021/01/05 07:36:58;;;;;;;23.02;12.27;;;;;;;1.54;91.75;101911.75;5092412;28;20039;-78
2021/01/05 07:39:34;;;;;;;22.03;10.87;;;;;;;1.53;91.74;101903.28;5099581;28;20046;-80
2021/01/05 07:42:28;;;;;;;18.50;8.82;;;;;;;1.53;91.98;101910.00;5097856;28;20073;-77
2021/01/05 07:44:55;;;;;;;26.67;12.63;;;;;;;1.53;92.17;101915.94;5090033;28;20027;-78
2021/01/05 07:47:23;;;;;;;25.50;12.30;;;;;;;1.55;91.89;101911.00;5098184;28;20073;-79
2021/01/05 07:49:49;;;;;;;24.73;12.27;;;;;;;1.55;92.10;101916.06;5086319;28;20032;-83
2021/01/05 07:52:21;;;;;;;29.65;13.63;;;;;;;1.52;91.93;101916.72;5083123;28;20482;-79
2021/01/05 07:54:46;;;;;;;26.73;13.57;;;;;;;1.47;92.22;101923.06;5079472;28;20029;-80
2021/01/05 07:57:12;;;;;;;24.58;12.80;;;;;;;1.49;92.14;101921.53;5079473;28;20116;-80
2021/01/05 07:59:38;;;;;;;25.45;13.45;;;;;;;1.51;92.19;101921.66;5096954;28;20058;-78
2021/01/05 08:02:04;;;;;;;24.40;12.10;;;;;;;1.50;92.32;101933.44;5099294;28;20118;-79
2021/01/05 08:04:29;;;;;;;25.30;12.93;;;;;;;1.53;92.60;101932.78;5095282;28;20048;-79
2021/01/05 08:06:54;;;;;;;25.45;12.90;;;;;;;1.51;92.42;101932.66;5080631;28;20052;-78
2021/01/05 08:09:19;;;;;;;27.60;12.70;;;;;;;1.52;92.56;101933.56;5080753;28;20823;-78
2021/01/05 08:11:45;;;;;;;26.00;13.17;;;;;;;1.51;92.45;101940.25;5080685;28;20024;-79
2021/01/05 08:14:10;;;;;;;25.65;12.70;;;;;;;1.50;92.65;101938.50;5090466;28;20020;-78
2021/01/05 08:16:35;;;;;;;24.87;12.93;;;;;;;1.48;92.91;101932.44;5099771;28;20051;-80
2021/01/05 08:19:00;;;;;;;25.20;13.90;;;;;;;1.49;92.75;101936.72;5081623;28;20641;-81
2021/01/05 08:21:26;;;;;;;24.48;12.05;;;;;;;1.51;92.75;101939.38;5088487;28;20131;-78
2021/01/05 08:23:52;;;;;;;27.00;13.10;;;;;;;1.53;92.90;101936.19;5083320;28;20028;-80
2021/01/05 08:26:17;;;;;;;25.40;13.10;;;;;;;1.56;93.05;101930.50;5091912;28;20111;-80
2021/01/05 08:28:42;;;;;;;25.70;13.48;;;;;;;1.56;92.84;101935.56;5099659;28;20051;-79
2021/01/05 08:31:08;;;;;;;24.42;12.55;;;;;;;1.56;92.90;101933.91;5079301;28;20025;-78
2021/01/05 08:33:33;;;;;;;25.90;13.35;;;;;;;1.57;92.61;101937.31;5078621;28;20032;-79
2021/01/05 08:35:58;;;;;;;27.10;12.45;;;;;;;1.58;92.95;101939.09;5085857;28;20027;-79
2021/01/05 08:38:24;;;;;;;27.17;12.73;;;;;;;1.56;92.88;101941.50;5096471;28;20055;-80
2021/01/05 08:40:49;;;;;;;26.17;12.73;;;;;;;1.59;92.51;101938.31;5097599;28;20620;-79
2021/01/05 08:43:14;;;;;;;26.40;13.02;;;;;;;1.61;92.55;101934.25;5103088;28;20028;-79
2021/01/05 08:45:40;;;;;;;25.05;12.95;;;;;;;1.62;92.43;101930.94;5098720;28;20024;-80
2021/01/05 08:48:06;;;;;;;25.58;12.38;;;;;;;1.67;92.58;101928.81;5103576;28;20043;-80
2021/01/05 08:50:32;;;;;;;27.48;14.00;;;;;;;1.66;92.25;101937.16;5101985;28;20111;-81
2021/01/05 08:53:07;;;;;;;22.35;11.93;;;;;;;1.74;92.11;101931.03;5102613;28;20024;-81
2021/01/05 08:55:40;;;;;;;28.97;13.20;;;;;;;1.74;92.25;101934.44;5091853;28;20035;-83
2021/01/05 08:58:06;;;;;;;25.93;12.83;;;;;;;1.74;92.22;101934.44;5087580;28;20050;-82
2021/01/05 09:00:31;;;;;;;26.88;14.43;;;;;;;1.73;92.70;101935.22;5087299;28;20025;-82
2021/01/05 09:02:57;;;;;;;24.27;12.65;;;;;;;1.74;92.10;101933.56;5079887;28;20377;-82
2021/01/05 09:05:23;;;;;;;25.13;13.40;;;;;;;1.77;92.43;101932.16;5077515;28;20024;-82
2021/01/05 09:07:48;;;;;;;27.13;13.65;;;;;;;1.80;91.73;101937.44;5100705;28;20028;-82
2021/01/05 09:10:17;;;;;;;23.90;12.93;;;;;;;1.80;91.63;101932.38;5097577;28;20040;-82
2021/01/05 09:12:42;;;;;;;27.70;14.87;;;;;;;1.81;91.76;101934.13;5089883;28;20483;-84
2021/01/05 09:15:13;;;;;;;26.20;13.52;;;;;;;1.81;91.93;101939.19;5102815;28;20016;-82
2021/01/05 09:17:38;;;;;;;25.07;12.53;;;;;;;1.86;92.03;101937.91;5089645;28;20402;-83
2021/01/05 09:20:04;;;;;;;24.25;12.38;;;;;;;1.94;92.04;101941.00;5090562;28;20104;-82
2021/01/05 09:22:29;;;;;;;25.17;12.10;;;;;;;1.91;91.66;101940.78;5087695;28;20116;-82
2021/01/05 09:24:55;;;;;;;24.17;13.33;;;;;;;1.90;91.65;101943.19;5087780;23;20076;-76
2021/01/05 09:27:20;;;;;;;23.57;12.23;;;;;;;1.89;91.59;101947.38;5065539;28;20284;-77
2021/01/05 09:29:45;;;;;;;25.93;12.60;;;;;;;1.88;91.90;101949.03;5067410;28;20421;-77
2021/01/05 09:32:11;;;;;;;22.60;12.43;;;;;;;1.92;91.88;101950.16;5062092;28;20290;-77
2021/01/05 09:34:36;;;;;;;23.23;11.75;;;;;;;1.94;91.66;101950.25;5063507;28;20032;-78
2021/01/05 09:37:05;;;;;;;23.13;12.07;;;;;;;1.97;92.07;101950.53;5063147;28;20159;-77
2021/01/05 09:39:31;;;;;;;23.93;12.33;;;;;;;1.96;91.85;101948.75;5058022;28;20025;-78
2021/01/05 09:42:00;;;;;;;21.33;11.10;;;;;;;1.97;90.90;101948.88;5061826;28;20368;-77
2021/01/05 09:44:26;;;;;;;27.00;12.93;;;;;;;2.01;91.43;101955.94;5063589;28;20044;-77
2021/01/05 09:46:52;;;;;;;24.73;12.38;;;;;;;2.01;91.67;101952.50;5070616;28;20028;-76
2021/01/05 09:49:18;;;;;;;22.57;11.50;;;;;;;2.02;91.50;101955.16;5063746;28;20029;-78
2021/01/05 09:51:44;;;;;;;28.17;13.88;;;;;;;2.03;91.66;101953.50;5065074;28;20410;-78
2021/01/05 09:54:10;;;;;;;26.33;13.48;;;;;;;2.07;91.62;101952.97;5070454;28;20037;-78
2021/01/05 09:56:36;;;;;;;25.97;12.40;;;;;;;2.11;91.49;101949.91;5060501;28;20032;-78
2021/01/05 09:59:01;;;;;;;30.20;14.60;;;;;;;2.12;91.60;101946.59;5063978;28;20036;-77
2021/01/05 10:01:29;;;;;;;29.23;13.23;;;;;;;2.15;91.63;101956.97;5060941;28;20306;-77
2021/01/05 10:03:54;;;;;;;26.47;13.57;;;;;;;2.20;92.07;101960.72;5066652;28;20325;-77
2021/01/05 10:06:22;;;;;;;28.73;14.48;;;;;;;2.19;91.82;101953.88;5069625;28;20029;-77
2021/01/05 10:08:47;;;;;;;25.10;13.30;;;;;;;2.17;91.44;101955.41;5063034;28;21011;-78
2021/01/05 10:11:13;;;;;;;26.92;13.65;;;;;;;2.19;91.77;101954.75;5055275;28;20035;-79
2021/01/05 10:13:38;;;;;;;23.70;12.50;;;;;;;2.23;92.00;101952.44;5057459;28;20052;-78
2021/01/05 10:16:04;;;;;;;26.20;13.43;;;;;;;2.26;91.62;101953.56;5057533;28;20475;-78
2021/01/05 10:18:29;;;;;;;24.30;12.05;;;;;;;2.20;91.17;101945.50;5061335;28;20031;-78
2021/01/05 10:20:54;;;;;;;23.03;12.93;;;;;;;2.18;91.66;101942.84;5065457;28;20502;-78
2021/01/05 10:23:20;;;;;;;22.40;11.93;;;;;;;2.22;91.49;101945.63;5055643;28;20279;-77
2021/01/05 10:25:47;;;;;;;19.92;11.40;;;;;;;2.22;91.16;101949.03;5061293;28;20393;-76
2021/01/05 10:28:13;;;;;;;23.43;12.80;;;;;;;2.21;90.94;101951.44;5060832;28;20065;-77
2021/01/05 10:30:38;;;;;;;22.23;11.73;;;;;;;2.22;91.57;101948.16;5062697;28;20052;-78
2021/01/05 10:33:03;;;;;;;24.00;12.10;;;;;;;2.23;91.47;101945.72;5065035;28;20024;-78
2021/01/05 10:35:28;;;;;;;22.20;11.60;;;;;;;2.21;91.00;101942.19;5058351;28;20490;-77
2021/01/05 10:37:54;;;;;;;20.37;10.73;;;;;;;2.29;91.44;101945.31;5052677;28;20032;-77
2021/01/05 10:40:20;;;;;;;22.70;11.70;;;;;;;2.29;91.83;101941.13;5058230;28;20454;-77
2021/01/05 10:42:47;;;;;;;24.20;12.43;;;;;;;2.25;91.56;101949.25;5068275;28;20692;-78
2021/01/05 10:45:15;;;;;;;19.63;9.67;;;;;;;2.28;91.38;101948.63;5066852;28;20115;-77
2021/01/05 10:47:41;;;;;;;20.33;9.87;;;;;;;2.25;92.08;101941.66;5061572;28;20024;-77
2021/01/05 10:50:12;;;;;;;18.70;10.03;;;;;;;2.21;92.13;101947.28;5061033;28;20501;-77
2021/01/05 10:52:37;;;;;;;19.63;10.07;;;;;;;2.18;92.43;101939.44;5064926;28;20386;-76
2021/01/05 10:55:05;;;;;;;19.00;9.95;;;;;;;2.22;92.88;101935.47;5058532;28;20017;-77
2021/01/05 10:57:30;;;;;;;24.07;11.17;;;;;;;2.24;92.96;101934.81;5069133;28;20029;-78
2021/01/05 10:59:55;;;;;;;26.10;11.20;;;;;;;2.27;92.61;101935.03;5058836;28;20036;-77
2021/01/05 11:02:21;;;;;;;21.27;10.57;;;;;;;2.31;92.55;101928.56;5056437;28;20478;-78
2021/01/05 11:04:46;;;;;;;22.37;10.87;;;;;;;2.29;91.90;101928.47;5067225;28;20281;-77
2021/01/05 11:07:14;;;;;;;22.05;9.93;;;;;;;2.40;92.26;101930.13;5060215;28;20275;-78
2021/01/05 11:09:40;;;;;;;22.27;11.27;;;;;;;2.35;91.86;101928.03;5055845;28;20437;-76
2021/01/05 11:12:10;;;;;;;22.80;11.20;;;;;;;2.39;92.42;101923.28;5061418;28;20044;-77
2021/01/05 11:14:41;;;;;;;18.83;10.37;;;;;;;2.39;91.74;101923.28;5062940;28;20052;-77
2021/01/05 11:17:08;;;;;;;21.33;11.20;;;;;;;2.44;91.75;101919.44;5057745;28;20056;-76
2021/01/05 11:19:34;;;;;;;20.27;10.27;;;;;;;2.47;91.47;101913.69;5055457;28;20066;-76
2021/01/05 11:22:02;;;;;;;18.67;9.47;;;;;;;2.46;91.13;101910.28;5060439;28;20032;-78
2021/01/05 11:24:28;;;;;;;18.83;10.50;;;;;;;2.45;90.98;101912.72;5053562;28;20494;-76
2021/01/05 11:26:54;;;;;;;18.30;9.83;;;;;;;2.46;91.20;101911.94;5056995;28;20025;-77
2021/01/05 11:29:20;;;;;;;;;;;;;;;2.43;91.52;101912.59;5059808;28;20112;-77
2021/01/05 11:31:55;;;;;;;20.23;10.87;;;;;;;2.39;91.01;101902.13;5062382;28;19959;-77
2021/01/05 11:34:21;;;;;;;18.57;9.97;;;;;;;2.44;91.02;101904.22;5060142;28;20499;-77
2021/01/05 11:36:46;;;;;;;20.08;10.45;;;;;;;2.46;90.70;101895.06;5057078;28;20027;-76
2021/01/05 11:39:11;;;;;;;18.73;10.40;;;;;;;2.52;91.37;101904.78;5063147;28;20033;-77
2021/01/05 11:41:37;;;;;;;16.50;9.35;;;;;;;2.57;90.89;101894.97;5057588;28;20060;-77